sensor_id;sensor_type;location;lat;lon;timestamp;P1;durP1;ratioP1;P2;durP2;ratioP2
8399;SDS011;4237;47.030;15.396;2022-07-29T00:01:53;5.27;;;4.37;;
8399;SDS011;4237;47.030;15.396;2022-07-29T00:04:22;4.60;;;4.03;;
8399;SDS011;4237;47.030;15.396;2022-07-29T00:06:50;5.13;;;4.63;;
8399;SDS011;4237;47.030;15.396;2022-07-29T00:09:18;4.90;;;4.07;;
8399;SDS011;4237;47.030;15.396;2022-07-29T00:11:46;6.93;;;4.43;;
8399;SDS011;4237;47.030;15.396;2022-07-29T00:14:15;6.93;;;4.40;;
8399;SDS011;4237;47.030;15.396;2022-07-29T00:16:43;4.73;;;4.33;;
8399;SDS011;4237;47.030;15.396;2022-07-29T00:19:11;6.10;;;4.07;;
8399;SDS011;4237;47.030;15.396;2022-07-29T00:21:39;4.77;;;4.10;;
8399;SDS011;4237;47.030;15.396;2022-07-29T00:24:07;5.53;;;4.10;;
8399;SDS011;4237;47.030;15.396;2022-07-29T00:26:36;4.80;;;4.40;;
8399;SDS011;4237;47.030;15.396;2022-07-29T00:29:04;4.57;;;4.07;;
8399;SDS011;4237;47.030;15.396;2022-07-29T00:31:32;6.47;;;4.73;;
8399;SDS011;4237;47.030;15.396;2022-07-29T00:34:00;4.63;;;4.10;;
8399;SDS011;4237;47.030;15.396;2022-07-29T00:36:29;4.87;;;4.37;;
8399;SDS011;4237;47.030;15.396;2022-07-29T00:38:57;6.00;;;4.60;;
8399;SDS011;4237;47.030;15.396;2022-07-29T00:41:26;4.97;;;4.40;;
8399;SDS011;4237;47.030;15.396;2022-07-29T00:43:54;4.83;;;4.33;;
8399;SDS011;4237;47.030;15.396;2022-07-29T00:46:22;4.90;;;4.47;;
8399;SDS011;4237;47.030;15.396;2022-07-29T00:48:50;5.67;;;4.30;;
8399;SDS011;4237;47.030;15.396;2022-07-29T00:51:18;5.33;;;4.47;;
8399;SDS011;4237;47.030;15.396;2022-07-29T00:53:47;6.17;;;4.30;;
8399;SDS011;4237;47.030;15.396;2022-07-29T00:56:16;6.90;;;4.43;;
8399;SDS011;4237;47.030;15.396;2022-07-29T00:58:45;7.03;;;4.40;;
8399;SDS011;4237;47.030;15.396;2022-07-29T01:01:15;6.13;;;4.20;;
8399;SDS011;4237;47.030;15.396;2022-07-29T01:03:44;5.30;;;4.73;;
8399;SDS011;4237;47.030;15.396;2022-07-29T01:06:12;5.77;;;4.60;;
8399;SDS011;4237;47.030;15.396;2022-07-29T01:08:40;7.00;;;4.60;;
8399;SDS011;4237;47.030;15.396;2022-07-29T01:11:08;5.07;;;4.60;;
8399;SDS011;4237;47.030;15.396;2022-07-29T01:13:37;5.23;;;4.73;;
8399;SDS011;4237;47.030;15.396;2022-07-29T01:16:17;4.83;;;4.43;;
8399;SDS011;4237;47.030;15.396;2022-07-29T01:18:46;5.23;;;4.73;;
8399;SDS011;4237;47.030;15.396;2022-07-29T01:29:06;7.90;;;5.00;;
8399;SDS011;4237;47.030;15.396;2022-07-29T01:31:39;5.63;;;4.47;;
8399;SDS011;4237;47.030;15.396;2022-07-29T01:34:05;5.90;;;4.17;;
8399;SDS011;4237;47.030;15.396;2022-07-29T01:39:09;5.60;;;4.63;;
8399;SDS011;4237;47.030;15.396;2022-07-29T01:41:38;5.07;;;4.47;;
8399;SDS011;4237;47.030;15.396;2022-07-29T01:44:13;6.43;;;4.97;;
8399;SDS011;4237;47.030;15.396;2022-07-29T01:46:37;5.43;;;4.93;;
8399;SDS011;4237;47.030;15.396;2022-07-29T01:49:16;5.90;;;5.40;;
8399;SDS011;4237;47.030;15.396;2022-07-29T01:51:52;10.23;;;5.00;;
8399;SDS011;4237;47.030;15.396;2022-07-29T01:54:29;5.67;;;5.00;;
8399;SDS011;4237;47.030;15.396;2022-07-29T01:56:56;7.00;;;5.33;;
8399;SDS011;4237;47.030;15.396;2022-07-29T01:59:25;5.20;;;4.80;;
8399;SDS011;4237;47.030;15.396;2022-07-29T02:01:57;6.57;;;5.43;;
8399;SDS011;4237;47.030;15.396;2022-07-29T02:04:25;5.70;;;5.10;;
8399;SDS011;4237;47.030;15.396;2022-07-29T02:06:55;6.23;;;5.63;;
8399;SDS011;4237;47.030;15.396;2022-07-29T02:09:24;6.00;;;5.40;;
8399;SDS011;4237;47.030;15.396;2022-07-29T02:11:53;6.35;;;5.10;;
8399;SDS011;4237;47.030;15.396;2022-07-29T02:14:22;5.90;;;5.33;;
8399;SDS011;4237;47.030;15.396;2022-07-29T02:16:52;5.47;;;4.93;;
8399;SDS011;4237;47.030;15.396;2022-07-29T02:19:21;5.87;;;5.37;;
8399;SDS011;4237;47.030;15.396;2022-07-29T02:21:50;10.77;;;5.43;;
8399;SDS011;4237;47.030;15.396;2022-07-29T02:24:19;7.40;;;5.40;;
8399;SDS011;4237;47.030;15.396;2022-07-29T02:26:49;6.75;;;5.40;;
8399;SDS011;4237;47.030;15.396;2022-07-29T02:29:18;5.83;;;5.33;;
8399;SDS011;4237;47.030;15.396;2022-07-29T02:31:47;8.05;;;4.85;;
8399;SDS011;4237;47.030;15.396;2022-07-29T02:34:17;5.77;;;4.87;;
8399;SDS011;4237;47.030;15.396;2022-07-29T02:36:52;6.73;;;5.10;;
8399;SDS011;4237;47.030;15.396;2022-07-29T02:39:22;6.10;;;5.47;;
8399;SDS011;4237;47.030;15.396;2022-07-29T02:41:52;6.07;;;5.10;;
8399;SDS011;4237;47.030;15.396;2022-07-29T02:44:21;5.23;;;4.83;;
8399;SDS011;4237;47.030;15.396;2022-07-29T02:49:46;6.53;;;5.93;;
8399;SDS011;4237;47.030;15.396;2022-07-29T02:54:51;5.97;;;5.27;;
8399;SDS011;4237;47.030;15.396;2022-07-29T02:57:27;6.20;;;5.47;;
8399;SDS011;4237;47.030;15.396;2022-07-29T02:59:52;7.43;;;5.60;;
8399;SDS011;4237;47.030;15.396;2022-07-29T03:02:21;6.33;;;5.73;;
8399;SDS011;4237;47.030;15.396;2022-07-29T03:04:49;6.37;;;5.77;;
8399;SDS011;4237;47.030;15.396;2022-07-29T03:07:19;6.70;;;5.90;;
8399;SDS011;4237;47.030;15.396;2022-07-29T03:09:48;7.33;;;5.60;;
8399;SDS011;4237;47.030;15.396;2022-07-29T03:12:17;6.80;;;6.00;;
8399;SDS011;4237;47.030;15.396;2022-07-29T03:14:46;7.25;;;5.70;;
8399;SDS011;4237;47.030;15.396;2022-07-29T03:17:15;7.40;;;6.20;;
8399;SDS011;4237;47.030;15.396;2022-07-29T03:19:43;7.10;;;6.30;;
8399;SDS011;4237;47.030;15.396;2022-07-29T03:22:12;8.13;;;6.00;;
8399;SDS011;4237;47.030;15.396;2022-07-29T03:24:40;9.37;;;6.40;;
8399;SDS011;4237;47.030;15.396;2022-07-29T03:27:08;10.50;;;5.90;;
8399;SDS011;4237;47.030;15.396;2022-07-29T03:29:37;6.93;;;6.10;;
8399;SDS011;4237;47.030;15.396;2022-07-29T03:32:05;6.20;;;5.70;;
8399;SDS011;4237;47.030;15.396;2022-07-29T03:34:34;6.93;;;5.70;;
8399;SDS011;4237;47.030;15.396;2022-07-29T03:37:03;7.67;;;6.13;;
8399;SDS011;4237;47.030;15.396;2022-07-29T03:39:35;8.17;;;5.90;;
8399;SDS011;4237;47.030;15.396;2022-07-29T03:42:02;8.77;;;5.70;;
8399;SDS011;4237;47.030;15.396;2022-07-29T03:44:32;6.43;;;5.73;;
8399;SDS011;4237;47.030;15.396;2022-07-29T03:47:02;7.83;;;6.27;;
8399;SDS011;4237;47.030;15.396;2022-07-29T03:49:31;5.83;;;5.30;;
8399;SDS011;4237;47.030;15.396;2022-07-29T03:52:00;8.00;;;6.53;;
8399;SDS011;4237;47.030;15.396;2022-07-29T03:54:28;8.10;;;6.60;;
8399;SDS011;4237;47.030;15.396;2022-07-29T03:56:57;6.83;;;6.17;;
8399;SDS011;4237;47.030;15.396;2022-07-29T03:59:26;10.10;;;6.53;;
8399;SDS011;4237;47.030;15.396;2022-07-29T04:01:55;8.00;;;6.67;;
8399;SDS011;4237;47.030;15.396;2022-07-29T04:04:24;6.77;;;6.03;;
8399;SDS011;4237;47.030;15.396;2022-07-29T04:06:52;7.70;;;6.77;;
8399;SDS011;4237;47.030;15.396;2022-07-29T04:09:21;7.13;;;6.43;;
8399;SDS011;4237;47.030;15.396;2022-07-29T04:11:49;6.93;;;6.07;;
8399;SDS011;4237;47.030;15.396;2022-07-29T04:14:18;8.07;;;6.60;;
8399;SDS011;4237;47.030;15.396;2022-07-29T04:16:47;7.00;;;6.37;;
8399;SDS011;4237;47.030;15.396;2022-07-29T04:19:15;6.83;;;6.17;;
8399;SDS011;4237;47.030;15.396;2022-07-29T04:21:43;7.03;;;6.33;;
8399;SDS011;4237;47.030;15.396;2022-07-29T04:24:12;6.60;;;6.00;;
8399;SDS011;4237;47.030;15.396;2022-07-29T04:26:40;8.93;;;5.90;;
8399;SDS011;4237;47.030;15.396;2022-07-29T04:29:08;7.57;;;6.20;;
8399;SDS011;4237;47.030;15.396;2022-07-29T04:31:38;7.93;;;6.13;;
8399;SDS011;4237;47.030;15.396;2022-07-29T04:34:07;6.30;;;5.70;;
8399;SDS011;4237;47.030;15.396;2022-07-29T04:36:36;8.40;;;6.00;;
8399;SDS011;4237;47.030;15.396;2022-07-29T04:39:04;7.33;;;6.33;;
8399;SDS011;4237;47.030;15.396;2022-07-29T04:41:33;8.87;;;6.60;;
8399;SDS011;4237;47.030;15.396;2022-07-29T04:44:01;8.60;;;6.93;;
8399;SDS011;4237;47.030;15.396;2022-07-29T04:46:31;10.43;;;7.13;;
8399;SDS011;4237;47.030;15.396;2022-07-29T04:48:59;7.10;;;6.40;;
8399;SDS011;4237;47.030;15.396;2022-07-29T04:51:27;8.30;;;7.00;;
8399;SDS011;4237;47.030;15.396;2022-07-29T04:53:56;8.97;;;7.07;;
8399;SDS011;4237;47.030;15.396;2022-07-29T04:56:24;8.23;;;6.60;;
8399;SDS011;4237;47.030;15.396;2022-07-29T04:58:53;8.17;;;6.50;;
8399;SDS011;4237;47.030;15.396;2022-07-29T05:01:21;7.90;;;7.00;;
8399;SDS011;4237;47.030;15.396;2022-07-29T05:03:49;7.90;;;6.60;;
8399;SDS011;4237;47.030;15.396;2022-07-29T05:06:18;7.03;;;6.27;;
8399;SDS011;4237;47.030;15.396;2022-07-29T05:08:46;7.07;;;5.80;;
8399;SDS011;4237;47.030;15.396;2022-07-29T05:11:14;7.87;;;6.00;;
8399;SDS011;4237;47.030;15.396;2022-07-29T05:13:42;10.67;;;5.43;;
8399;SDS011;4237;47.030;15.396;2022-07-29T05:16:10;7.30;;;5.63;;
8399;SDS011;4237;47.030;15.396;2022-07-29T05:18:39;7.53;;;5.97;;
8399;SDS011;4237;47.030;15.396;2022-07-29T05:21:07;6.80;;;6.00;;
8399;SDS011;4237;47.030;15.396;2022-07-29T05:23:35;8.73;;;5.77;;
8399;SDS011;4237;47.030;15.396;2022-07-29T05:26:04;6.70;;;5.50;;
8399;SDS011;4237;47.030;15.396;2022-07-29T05:28:33;6.50;;;5.83;;
8399;SDS011;4237;47.030;15.396;2022-07-29T05:31:05;6.40;;;5.80;;
8399;SDS011;4237;47.030;15.396;2022-07-29T05:33:33;7.03;;;5.20;;
8399;SDS011;4237;47.030;15.396;2022-07-29T05:36:01;7.53;;;6.03;;
8399;SDS011;4237;47.030;15.396;2022-07-29T05:38:29;7.77;;;6.10;;
8399;SDS011;4237;47.030;15.396;2022-07-29T05:40:58;6.10;;;5.50;;
8399;SDS011;4237;47.030;15.396;2022-07-29T05:43:29;7.33;;;5.60;;
8399;SDS011;4237;47.030;15.396;2022-07-29T05:45:57;7.43;;;5.67;;
8399;SDS011;4237;47.030;15.396;2022-07-29T05:48:26;7.13;;;5.43;;
8399;SDS011;4237;47.030;15.396;2022-07-29T05:50:55;6.33;;;5.17;;
8399;SDS011;4237;47.030;15.396;2022-07-29T05:53:24;5.97;;;5.37;;
8399;SDS011;4237;47.030;15.396;2022-07-29T05:55:52;8.23;;;6.20;;
8399;SDS011;4237;47.030;15.396;2022-07-29T05:58:20;9.10;;;5.90;;
8399;SDS011;4237;47.030;15.396;2022-07-29T06:00:49;14.00;;;6.20;;
8399;SDS011;4237;47.030;15.396;2022-07-29T06:03:17;9.90;;;6.03;;
8399;SDS011;4237;47.030;15.396;2022-07-29T06:05:45;16.55;;;6.35;;
8399;SDS011;4237;47.030;15.396;2022-07-29T06:08:13;16.80;;;6.30;;
8399;SDS011;4237;47.030;15.396;2022-07-29T06:10:41;11.50;;;6.77;;
8399;SDS011;4237;47.030;15.396;2022-07-29T06:13:10;12.67;;;6.60;;
8399;SDS011;4237;47.030;15.396;2022-07-29T06:15:39;13.40;;;5.67;;
8399;SDS011;4237;47.030;15.396;2022-07-29T06:18:07;10.87;;;5.83;;
8399;SDS011;4237;47.030;15.396;2022-07-29T06:20:37;13.80;;;6.77;;
8399;SDS011;4237;47.030;15.396;2022-07-29T06:23:05;7.53;;;5.57;;
8399;SDS011;4237;47.030;15.396;2022-07-29T06:25:33;9.17;;;5.33;;
8399;SDS011;4237;47.030;15.396;2022-07-29T06:28:05;11.13;;;5.33;;
8399;SDS011;4237;47.030;15.396;2022-07-29T06:30:33;7.37;;;5.23;;
8399;SDS011;4237;47.030;15.396;2022-07-29T06:33:02;9.40;;;5.30;;
8399;SDS011;4237;47.030;15.396;2022-07-29T06:35:33;8.17;;;4.70;;
8399;SDS011;4237;47.030;15.396;2022-07-29T06:38:02;5.92;;;5.00;;
8399;SDS011;4237;47.030;15.396;2022-07-29T06:40:30;8.08;;;4.90;;
8399;SDS011;4237;47.030;15.396;2022-07-29T06:43:16;5.83;;;4.45;;
8399;SDS011;4237;47.030;15.396;2022-07-29T06:45:45;9.00;;;4.95;;
8399;SDS011;4237;47.030;15.396;2022-07-29T06:48:13;7.35;;;5.15;;
8399;SDS011;4237;47.030;15.396;2022-07-29T06:50:41;5.22;;;4.47;;
8399;SDS011;4237;47.030;15.396;2022-07-29T06:53:09;6.40;;;5.22;;
8399;SDS011;4237;47.030;15.396;2022-07-29T06:55:38;5.85;;;4.42;;
8399;SDS011;4237;47.030;15.396;2022-07-29T06:58:06;6.28;;;4.62;;
8399;SDS011;4237;47.030;15.396;2022-07-29T07:00:35;5.62;;;4.83;;
8399;SDS011;4237;47.030;15.396;2022-07-29T07:03:03;8.83;;;5.08;;
8399;SDS011;4237;47.030;15.396;2022-07-29T07:05:31;5.85;;;5.15;;
8399;SDS011;4237;47.030;15.396;2022-07-29T07:07:59;11.33;;;5.10;;
8399;SDS011;4237;47.030;15.396;2022-07-29T07:10:27;4.60;;;4.20;;
8399;SDS011;4237;47.030;15.396;2022-07-29T07:12:56;7.00;;;4.37;;
8399;SDS011;4237;47.030;15.396;2022-07-29T07:15:24;6.03;;;3.85;;
8399;SDS011;4237;47.030;15.396;2022-07-29T07:17:53;7.22;;;4.28;;
8399;SDS011;4237;47.030;15.396;2022-07-29T07:20:21;6.85;;;4.25;;
8399;SDS011;4237;47.030;15.396;2022-07-29T07:22:49;6.03;;;4.23;;
8399;SDS011;4237;47.030;15.396;2022-07-29T07:25:17;5.22;;;4.05;;
8399;SDS011;4237;47.030;15.396;2022-07-29T07:27:46;6.85;;;4.20;;
8399;SDS011;4237;47.030;15.396;2022-07-29T07:30:14;6.65;;;5.03;;
8399;SDS011;4237;47.030;15.396;2022-07-29T07:32:42;6.65;;;4.65;;
8399;SDS011;4237;47.030;15.396;2022-07-29T07:35:10;12.05;;;4.97;;
8399;SDS011;4237;47.030;15.396;2022-07-29T07:37:39;7.87;;;4.87;;
8399;SDS011;4237;47.030;15.396;2022-07-29T07:40:10;6.05;;;4.53;;
8399;SDS011;4237;47.030;15.396;2022-07-29T07:42:39;5.70;;;4.50;;
8399;SDS011;4237;47.030;15.396;2022-07-29T07:45:08;6.90;;;3.90;;
8399;SDS011;4237;47.030;15.396;2022-07-29T07:47:39;6.28;;;4.62;;
8399;SDS011;4237;47.030;15.396;2022-07-29T07:50:08;7.72;;;4.47;;
8399;SDS011;4237;47.030;15.396;2022-07-29T07:52:45;8.08;;;4.37;;
8399;SDS011;4237;47.030;15.396;2022-07-29T07:55:06;5.95;;;4.35;;
8399;SDS011;4237;47.030;15.396;2022-07-29T07:57:34;9.65;;;4.10;;
8399;SDS011;4237;47.030;15.396;2022-07-29T08:00:03;9.55;;;3.87;;
8399;SDS011;4237;47.030;15.396;2022-07-29T08:02:31;4.75;;;3.90;;
8399;SDS011;4237;47.030;15.396;2022-07-29T08:05:00;4.40;;;3.60;;
8399;SDS011;4237;47.030;15.396;2022-07-29T08:07:28;5.47;;;3.95;;
8399;SDS011;4237;47.030;15.396;2022-07-29T08:09:56;4.53;;;3.80;;
8399;SDS011;4237;47.030;15.396;2022-07-29T08:12:24;4.85;;;4.05;;
8399;SDS011;4237;47.030;15.396;2022-07-29T08:14:52;5.87;;;3.40;;
8399;SDS011;4237;47.030;15.396;2022-07-29T08:17:21;7.53;;;3.67;;
8399;SDS011;4237;47.030;15.396;2022-07-29T08:19:49;6.60;;;3.60;;
8399;SDS011;4237;47.030;15.396;2022-07-29T08:22:17;6.72;;;3.98;;
8399;SDS011;4237;47.030;15.396;2022-07-29T08:24:45;3.62;;;3.12;;
8399;SDS011;4237;47.030;15.396;2022-07-29T08:27:15;4.97;;;3.83;;
8399;SDS011;4237;47.030;15.396;2022-07-29T08:29:44;7.28;;;4.05;;
8399;SDS011;4237;47.030;15.396;2022-07-29T08:32:13;11.08;;;3.87;;
8399;SDS011;4237;47.030;15.396;2022-07-29T08:34:41;8.83;;;3.95;;
8399;SDS011;4237;47.030;15.396;2022-07-29T08:37:11;4.47;;;3.67;;
8399;SDS011;4237;47.030;15.396;2022-07-29T08:39:39;9.80;;;4.10;;
8399;SDS011;4237;47.030;15.396;2022-07-29T08:42:08;7.90;;;3.40;;
8399;SDS011;4237;47.030;15.396;2022-07-29T08:44:36;7.28;;;3.60;;
8399;SDS011;4237;47.030;15.396;2022-07-29T08:47:05;5.25;;;3.42;;
8399;SDS011;4237;47.030;15.396;2022-07-29T08:49:34;4.60;;;3.22;;
8399;SDS011;4237;47.030;15.396;2022-07-29T08:52:03;3.65;;;3.12;;
8399;SDS011;4237;47.030;15.396;2022-07-29T08:54:31;8.95;;;4.20;;
8399;SDS011;4237;47.030;15.396;2022-07-29T08:56:59;3.80;;;3.47;;
8399;SDS011;4237;47.030;15.396;2022-07-29T08:59:28;4.30;;;3.90;;
8399;SDS011;4237;47.030;15.396;2022-07-29T09:01:58;5.65;;;4.10;;
8399;SDS011;4237;47.030;15.396;2022-07-29T09:04:29;6.30;;;3.60;;
8399;SDS011;4237;47.030;15.396;2022-07-29T09:06:57;5.70;;;3.50;;
8399;SDS011;4237;47.030;15.396;2022-07-29T09:09:27;7.00;;;3.90;;
8399;SDS011;4237;47.030;15.396;2022-07-29T09:11:55;4.10;;;3.67;;
8399;SDS011;4237;47.030;15.396;2022-07-29T09:14:23;5.50;;;3.50;;
8399;SDS011;4237;47.030;15.396;2022-07-29T09:16:53;4.83;;;3.30;;
8399;SDS011;4237;47.030;15.396;2022-07-29T09:21:54;4.60;;;3.53;;
8399;SDS011;4237;47.030;15.396;2022-07-29T09:26:55;4.83;;;3.60;;
8399;SDS011;4237;47.030;15.396;2022-07-29T09:29:23;6.10;;;4.17;;
8399;SDS011;4237;47.030;15.396;2022-07-29T09:31:52;3.87;;;3.57;;
8399;SDS011;4237;47.030;15.396;2022-07-29T09:34:22;4.30;;;3.73;;
8399;SDS011;4237;47.030;15.396;2022-07-29T09:36:52;5.20;;;3.60;;
8399;SDS011;4237;47.030;15.396;2022-07-29T09:39:27;4.60;;;3.80;;
8399;SDS011;4237;47.030;15.396;2022-07-29T09:41:56;5.47;;;3.53;;
8399;SDS011;4237;47.030;15.396;2022-07-29T09:44:25;4.73;;;3.37;;
8399;SDS011;4237;47.030;15.396;2022-07-29T09:46:54;4.08;;;3.70;;
8399;SDS011;4237;47.030;15.396;2022-07-29T09:49:22;4.92;;;3.60;;
8399;SDS011;4237;47.030;15.396;2022-07-29T09:52:04;4.25;;;3.30;;
8399;SDS011;4237;47.030;15.396;2022-07-29T09:54:32;6.53;;;3.40;;
8399;SDS011;4237;47.030;15.396;2022-07-29T09:57:05;4.05;;;3.47;;
8399;SDS011;4237;47.030;15.396;2022-07-29T09:59:33;3.80;;;3.50;;
8399;SDS011;4237;47.030;15.396;2022-07-29T10:02:10;4.47;;;3.33;;
8399;SDS011;4237;47.030;15.396;2022-07-29T10:04:38;5.58;;;4.17;;
8399;SDS011;4237;47.030;15.396;2022-07-29T10:07:07;4.47;;;3.70;;
8399;SDS011;4237;47.030;15.396;2022-07-29T10:09:35;4.90;;;3.60;;
8399;SDS011;4237;47.030;15.396;2022-07-29T10:12:07;4.03;;;3.63;;
8399;SDS011;4237;47.030;15.396;2022-07-29T10:14:41;4.30;;;3.83;;
8399;SDS011;4237;47.030;15.396;2022-07-29T10:17:09;6.13;;;3.77;;
8399;SDS011;4237;47.030;15.396;2022-07-29T10:19:38;3.77;;;3.47;;
8399;SDS011;4237;47.030;15.396;2022-07-29T10:22:08;4.73;;;3.47;;
8399;SDS011;4237;47.030;15.396;2022-07-29T10:24:37;4.17;;;3.40;;
8399;SDS011;4237;47.030;15.396;2022-07-29T10:27:06;4.23;;;3.80;;
8399;SDS011;4237;47.030;15.396;2022-07-29T10:29:35;5.17;;;3.50;;
8399;SDS011;4237;47.030;15.396;2022-07-29T10:37:46;4.40;;;3.40;;
8399;SDS011;4237;47.030;15.396;2022-07-29T10:40:13;4.57;;;3.60;;
8399;SDS011;4237;47.030;15.396;2022-07-29T10:42:59;4.93;;;4.10;;
8399;SDS011;4237;47.030;15.396;2022-07-29T10:45:28;5.50;;;3.80;;
8399;SDS011;4237;47.030;15.396;2022-07-29T10:48:04;4.50;;;3.90;;
8399;SDS011;4237;47.030;15.396;2022-07-29T10:56:25;8.28;;;3.30;;
8399;SDS011;4237;47.030;15.396;2022-07-29T11:01:40;5.08;;;3.75;;
8399;SDS011;4237;47.030;15.396;2022-07-29T11:04:08;4.50;;;4.10;;
8399;SDS011;4237;47.030;15.396;2022-07-29T11:09:22;4.55;;;3.42;;
8399;SDS011;4237;47.030;15.396;2022-07-29T11:11:51;4.62;;;3.40;;
8399;SDS011;4237;47.030;15.396;2022-07-29T11:14:54;3.65;;;3.33;;
8399;SDS011;4237;47.030;15.396;2022-07-29T11:17:04;3.27;;;2.98;;
8399;SDS011;4237;47.030;15.396;2022-07-29T11:19:35;4.97;;;3.40;;
8399;SDS011;4237;47.030;15.396;2022-07-29T11:22:04;4.53;;;3.10;;
8399;SDS011;4237;47.030;15.396;2022-07-29T11:24:34;4.83;;;2.92;;
8399;SDS011;4237;47.030;15.396;2022-07-29T11:29:39;5.00;;;3.70;;
8399;SDS011;4237;47.030;15.396;2022-07-29T11:32:09;4.75;;;3.30;;
8399;SDS011;4237;47.030;15.396;2022-07-29T11:34:38;5.17;;;3.10;;
8399;SDS011;4237;47.030;15.396;2022-07-29T11:39:47;3.92;;;3.12;;
8399;SDS011;4237;47.030;15.396;2022-07-29T11:45:05;9.40;;;3.20;;
8399;SDS011;4237;47.030;15.396;2022-07-29T11:47:35;4.53;;;2.87;;
8399;SDS011;4237;47.030;15.396;2022-07-29T11:50:05;7.22;;;3.20;;
8399;SDS011;4237;47.030;15.396;2022-07-29T11:52:34;3.45;;;3.15;;
8399;SDS011;4237;47.030;15.396;2022-07-29T11:55:05;4.55;;;2.87;;
8399;SDS011;4237;47.030;15.396;2022-07-29T11:57:36;3.40;;;3.10;;
8399;SDS011;4237;47.030;15.396;2022-07-29T12:00:05;3.25;;;2.92;;
8399;SDS011;4237;47.030;15.396;2022-07-29T12:02:43;4.58;;;3.37;;
8399;SDS011;4237;47.030;15.396;2022-07-29T12:05:09;5.78;;;3.02;;
8399;SDS011;4237;47.030;15.396;2022-07-29T12:07:40;4.28;;;2.95;;
8399;SDS011;4237;47.030;15.396;2022-07-29T12:10:08;2.90;;;2.70;;
8399;SDS011;4237;47.030;15.396;2022-07-29T12:12:37;4.20;;;3.22;;
8399;SDS011;4237;47.030;15.396;2022-07-29T12:15:15;3.30;;;3.00;;
8399;SDS011;4237;47.030;15.396;2022-07-29T12:17:47;3.20;;;2.90;;
8399;SDS011;4237;47.030;15.396;2022-07-29T12:20:27;4.22;;;3.15;;
8399;SDS011;4237;47.030;15.396;2022-07-29T12:22:51;4.80;;;3.33;;
8399;SDS011;4237;47.030;15.396;2022-07-29T12:25:22;3.58;;;3.27;;
8399;SDS011;4237;47.030;15.396;2022-07-29T12:27:57;4.60;;;3.37;;
8399;SDS011;4237;47.030;15.396;2022-07-29T12:30:39;5.12;;;3.62;;
8399;SDS011;4237;47.030;15.396;2022-07-29T12:33:11;4.03;;;3.22;;
8399;SDS011;4237;47.030;15.396;2022-07-29T12:35:41;4.47;;;3.42;;
8399;SDS011;4237;47.030;15.396;2022-07-29T12:38:10;4.40;;;3.40;;
8399;SDS011;4237;47.030;15.396;2022-07-29T12:40:39;3.40;;;3.05;;
8399;SDS011;4237;47.030;15.396;2022-07-29T12:43:16;4.72;;;3.27;;
8399;SDS011;4237;47.030;15.396;2022-07-29T12:45:46;5.10;;;3.10;;
8399;SDS011;4237;47.030;15.396;2022-07-29T12:48:15;4.42;;;3.70;;
8399;SDS011;4237;47.030;15.396;2022-07-29T12:50:53;3.30;;;3.10;;
8399;SDS011;4237;47.030;15.396;2022-07-29T12:53:22;4.28;;;3.40;;
8399;SDS011;4237;47.030;15.396;2022-07-29T12:55:51;3.37;;;3.00;;
8399;SDS011;4237;47.030;15.396;2022-07-29T13:01:00;3.87;;;3.58;;
8399;SDS011;4237;47.030;15.396;2022-07-29T13:03:28;9.45;;;3.62;;
8399;SDS011;4237;47.030;15.396;2022-07-29T13:05:57;4.30;;;3.90;;
8399;SDS011;4237;47.030;15.396;2022-07-29T13:08:25;4.77;;;3.70;;
8399;SDS011;4237;47.030;15.396;2022-07-29T13:10:53;3.73;;;3.40;;
8399;SDS011;4237;47.030;15.396;2022-07-29T13:13:21;4.53;;;3.53;;
8399;SDS011;4237;47.030;15.396;2022-07-29T13:16:04;3.70;;;3.40;;
8399;SDS011;4237;47.030;15.396;2022-07-29T13:21:10;8.87;;;3.50;;
8399;SDS011;4237;47.030;15.396;2022-07-29T13:23:28;6.10;;;3.40;;
8399;SDS011;4237;47.030;15.396;2022-07-29T13:26:04;3.77;;;3.30;;
8399;SDS011;4237;47.030;15.396;2022-07-29T13:28:26;5.43;;;3.73;;
8399;SDS011;4237;47.030;15.396;2022-07-29T13:30:54;6.67;;;3.58;;
8399;SDS011;4237;47.030;15.396;2022-07-29T13:33:23;4.20;;;3.72;;
8399;SDS011;4237;47.030;15.396;2022-07-29T13:35:51;4.20;;;3.42;;
8399;SDS011;4237;47.030;15.396;2022-07-29T13:38:19;4.72;;;3.60;;
8399;SDS011;4237;47.030;15.396;2022-07-29T13:40:47;6.12;;;3.50;;
8399;SDS011;4237;47.030;15.396;2022-07-29T13:43:15;6.15;;;3.30;;
8399;SDS011;4237;47.030;15.396;2022-07-29T13:45:44;4.90;;;3.37;;
8399;SDS011;4237;47.030;15.396;2022-07-29T13:48:12;4.92;;;3.35;;
8399;SDS011;4237;47.030;15.396;2022-07-29T13:50:40;3.80;;;3.50;;
8399;SDS011;4237;47.030;15.396;2022-07-29T13:53:08;3.58;;;3.25;;
8399;SDS011;4237;47.030;15.396;2022-07-29T13:55:36;6.17;;;3.52;;
8399;SDS011;4237;47.030;15.396;2022-07-29T13:58:04;3.45;;;3.02;;
8399;SDS011;4237;47.030;15.396;2022-07-29T14:00:33;3.70;;;2.80;;
8399;SDS011;4237;47.030;15.396;2022-07-29T14:03:01;3.98;;;3.40;;
8399;SDS011;4237;47.030;15.396;2022-07-29T14:05:29;4.25;;;3.00;;
8399;SDS011;4237;47.030;15.396;2022-07-29T14:07:57;3.62;;;2.90;;
8399;SDS011;4237;47.030;15.396;2022-07-29T14:10:25;6.03;;;3.10;;
8399;SDS011;4237;47.030;15.396;2022-07-29T14:12:54;4.08;;;3.10;;
8399;SDS011;4237;47.030;15.396;2022-07-29T14:15:22;3.33;;;3.00;;
8399;SDS011;4237;47.030;15.396;2022-07-29T14:17:50;3.77;;;3.00;;
8399;SDS011;4237;47.030;15.396;2022-07-29T14:20:18;4.22;;;3.08;;
8399;SDS011;4237;47.030;15.396;2022-07-29T14:22:47;3.27;;;2.98;;
8399;SDS011;4237;47.030;15.396;2022-07-29T14:25:15;3.30;;;3.00;;
8399;SDS011;4237;47.030;15.396;2022-07-29T14:27:43;6.00;;;3.30;;
8399;SDS011;4237;47.030;15.396;2022-07-29T14:30:12;5.62;;;3.37;;
8399;SDS011;4237;47.030;15.396;2022-07-29T14:32:40;3.50;;;3.20;;
8399;SDS011;4237;47.030;15.396;2022-07-29T14:35:08;6.55;;;3.37;;
8399;SDS011;4237;47.030;15.396;2022-07-29T14:37:37;4.47;;;2.90;;
8399;SDS011;4237;47.030;15.396;2022-07-29T14:40:05;4.47;;;3.25;;
8399;SDS011;4237;47.030;15.396;2022-07-29T14:42:34;3.40;;;2.90;;
8399;SDS011;4237;47.030;15.396;2022-07-29T14:45:09;3.70;;;3.35;;
8399;SDS011;4237;47.030;15.396;2022-07-29T14:47:33;8.30;;;3.10;;
8399;SDS011;4237;47.030;15.396;2022-07-29T14:50:01;4.20;;;3.45;;
8399;SDS011;4237;47.030;15.396;2022-07-29T14:52:29;3.47;;;3.17;;
8399;SDS011;4237;47.030;15.396;2022-07-29T14:54:57;3.85;;;3.17;;
8399;SDS011;4237;47.030;15.396;2022-07-29T14:57:26;3.33;;;3.02;;
8399;SDS011;4237;47.030;15.396;2022-07-29T14:59:54;4.42;;;3.12;;
8399;SDS011;4237;47.030;15.396;2022-07-29T15:02:23;3.42;;;3.02;;
8399;SDS011;4237;47.030;15.396;2022-07-29T15:04:51;3.40;;;3.10;;
8399;SDS011;4237;47.030;15.396;2022-07-29T15:07:19;4.30;;;2.95;;
8399;SDS011;4237;47.030;15.396;2022-07-29T15:09:47;4.78;;;3.27;;
8399;SDS011;4237;47.030;15.396;2022-07-29T15:12:15;5.10;;;3.30;;
8399;SDS011;4237;47.030;15.396;2022-07-29T15:14:44;3.62;;;3.33;;
8399;SDS011;4237;47.030;15.396;2022-07-29T15:17:12;4.62;;;2.90;;
8399;SDS011;4237;47.030;15.396;2022-07-29T15:19:40;3.87;;;3.27;;
8399;SDS011;4237;47.030;15.396;2022-07-29T15:22:08;4.85;;;3.47;;
8399;SDS011;4237;47.030;15.396;2022-07-29T15:24:37;3.67;;;3.33;;
8399;SDS011;4237;47.030;15.396;2022-07-29T15:27:05;5.67;;;3.35;;
8399;SDS011;4237;47.030;15.396;2022-07-29T15:29:33;4.12;;;3.35;;
8399;SDS011;4237;47.030;15.396;2022-07-29T15:32:01;3.62;;;3.33;;
8399;SDS011;4237;47.030;15.396;2022-07-29T15:34:29;4.85;;;3.17;;
8399;SDS011;4237;47.030;15.396;2022-07-29T15:36:58;4.45;;;3.30;;
8399;SDS011;4237;47.030;15.396;2022-07-29T15:39:26;3.20;;;2.92;;
8399;SDS011;4237;47.030;15.396;2022-07-29T15:41:54;5.15;;;3.25;;
8399;SDS011;4237;47.030;15.396;2022-07-29T15:44:22;6.40;;;3.27;;
8399;SDS011;4237;47.030;15.396;2022-07-29T15:46:50;3.30;;;3.00;;
8399;SDS011;4237;47.030;15.396;2022-07-29T15:49:32;3.75;;;3.40;;
8399;SDS011;4237;47.030;15.396;2022-07-29T15:52:01;4.78;;;3.25;;
8399;SDS011;4237;47.030;15.396;2022-07-29T15:54:30;4.67;;;3.20;;
8399;SDS011;4237;47.030;15.396;2022-07-29T15:56:58;4.90;;;3.12;;
8399;SDS011;4237;47.030;15.396;2022-07-29T15:59:27;4.75;;;3.25;;
8399;SDS011;4237;47.030;15.396;2022-07-29T16:01:55;3.47;;;3.17;;
8399;SDS011;4237;47.030;15.396;2022-07-29T16:04:24;4.87;;;3.50;;